sensor_id;sensor_type;location;lat;lon;timestamp;pressure;altitude;pressure_sealevel;temperature;humidity
23303;BME280;11820;48.738;9.092;2023-11-22T00:02:16;96533.28;;;7.76;nan
23303;BME280;11820;48.738;9.092;2023-11-22T00:04:41;96525.56;;;7.76;nan
23303;BME280;11820;48.738;9.092;2023-11-22T00:07:07;96528.13;;;7.76;nan
23303;BME280;11820;48.738;9.092;2023-11-22T00:09:32;96520.59;;;7.75;nan
23303;BME280;11820;48.738;9.092;2023-11-22T00:11:57;96522.25;;;7.68;nan
23303;BME280;11820;48.738;9.092;2023-11-22T00:14:25;96524.94;;;7.74;nan
23303;BME280;11820;48.738;9.092;2023-11-22T00:16:51;96531.53;;;7.77;nan
23303;BME280;11820;48.738;9.092;2023-11-22T00:19:16;96529.84;;;7.61;nan
23303;BME280;11820;48.738;9.092;2023-11-22T00:21:43;96545.38;;;7.37;nan
23303;BME280;11820;48.738;9.092;2023-11-22T00:24:08;96547.44;;;6.87;nan
23303;BME280;11820;48.738;9.092;2023-11-22T00:26:34;96552.44;;;6.73;nan
23303;BME280;11820;48.738;9.092;2023-11-22T00:28:59;96553.44;;;6.64;nan
23303;BME280;11820;48.738;9.092;2023-11-22T00:31:25;96554.56;;;6.53;nan
23303;BME280;11820;48.738;9.092;2023-11-22T00:33:50;96559.84;;;6.44;nan
23303;BME280;11820;48.738;9.092;2023-11-22T00:36:16;96561.63;;;6.36;nan
23303;BME280;11820;48.738;9.092;2023-11-22T00:38:41;96566.75;;;6.51;nan
23303;BME280;11820;48.738;9.092;2023-11-22T00:41:07;96570.09;;;6.28;nan
23303;BME280;11820;48.738;9.092;2023-11-22T00:43:33;96582.81;;;6.30;nan
23303;BME280;11820;48.738;9.092;2023-11-22T00:45:58;96580.22;;;6.30;nan
23303;BME280;11820;48.738;9.092;2023-11-22T00:48:23;96586.97;;;6.38;nan
23303;BME280;11820;48.738;9.092;2023-11-22T00:50:49;96593.84;;;6.30;nan
23303;BME280;11820;48.738;9.092;2023-11-22T00:53:14;96591.59;;;6.19;nan
23303;BME280;11820;48.738;9.092;2023-11-22T00:55:40;96589.19;;;6.10;nan
23303;BME280;11820;48.738;9.092;2023-11-22T00:58:07;96600.09;;;6.04;nan
23303;BME280;11820;48.738;9.092;2023-11-22T01:00:32;96598.78;;;6.00;nan
23303;BME280;11820;48.738;9.092;2023-11-22T01:02:58;96619.63;;;5.97;nan
23303;BME280;11820;48.738;9.092;2023-11-22T01:05:23;96615.09;;;5.83;nan
23303;BME280;11820;48.738;9.092;2023-11-22T01:07:49;96617.50;;;5.84;nan
23303;BME280;11820;48.738;9.092;2023-11-22T01:10:15;96612.47;;;5.75;nan
23303;BME280;11820;48.738;9.092;2023-11-22T01:12:40;96626.03;;;5.93;nan
23303;BME280;11820;48.738;9.092;2023-11-22T01:15:07;96623.94;;;5.88;nan
23303;BME280;11820;48.738;9.092;2023-11-22T01:17:32;96627.56;;;5.78;nan
23303;BME280;11820;48.738;9.092;2023-11-22T01:19:58;96626.88;;;5.68;nan
23303;BME280;11820;48.738;9.092;2023-11-22T01:22:24;96637.00;;;5.77;nan
23303;BME280;11820;48.738;9.092;2023-11-22T01:24:49;96632.16;;;5.33;nan
23303;BME280;11820;48.738;9.092;2023-11-22T01:27:14;96626.44;;;5.47;nan
23303;BME280;11820;48.738;9.092;2023-11-22T01:29:40;96637.19;;;5.42;nan
23303;BME280;11820;48.738;9.092;2023-11-22T01:32:06;96637.66;;;5.46;nan
23303;BME280;11820;48.738;9.092;2023-11-22T01:34:32;96647.78;;;5.47;nan
23303;BME280;11820;48.738;9.092;2023-11-22T01:36:57;96648.13;;;5.52;nan
23303;BME280;11820;48.738;9.092;2023-11-22T01:39:22;96651.13;;;5.48;nan
23303;BME280;11820;48.738;9.092;2023-11-22T01:41:47;96654.22;;;5.26;nan
23303;BME280;11820;48.738;9.092;2023-11-22T01:44:15;96650.72;;;5.27;nan
23303;BME280;11820;48.738;9.092;2023-11-22T01:46:41;96656.66;;;5.35;nan
23303;BME280;11820;48.738;9.092;2023-11-22T01:49:09;96660.03;;;5.36;nan
23303;BME280;11820;48.738;9.092;2023-11-22T01:51:35;96666.03;;;5.19;nan
23303;BME280;11820;48.738;9.092;2023-11-22T01:54:01;96665.03;;;5.12;nan
23303;BME280;11820;48.738;9.092;2023-11-22T01:56:27;96669.72;;;5.16;nan
23303;BME280;11820;48.738;9.092;2023-11-22T01:58:54;96670.00;;;5.13;nan
23303;BME280;11820;48.738;9.092;2023-11-22T02:01:21;96673.97;;;5.08;nan
23303;BME280;11820;48.738;9.092;2023-11-22T02:03:46;96682.59;;;5.07;nan
23303;BME280;11820;48.738;9.092;2023-11-22T02:06:17;96685.69;;;4.93;nan
23303;BME280;11820;48.738;9.092;2023-11-22T02:08:43;96685.16;;;5.07;nan
23303;BME280;11820;48.738;9.092;2023-11-22T02:11:09;96689.13;;;5.01;nan
23303;BME280;11820;48.738;9.092;2023-11-22T02:13:34;96702.84;;;4.75;nan
23303;BME280;11820;48.738;9.092;2023-11-22T02:16:00;96703.72;;;4.66;nan
23303;BME280;11820;48.738;9.092;2023-11-22T02:18:27;96700.50;;;4.64;nan
23303;BME280;11820;48.738;9.092;2023-11-22T02:20:53;96705.91;;;4.61;nan
23303;BME280;11820;48.738;9.092;2023-11-22T02:23:18;96713.28;;;4.64;nan
23303;BME280;11820;48.738;9.092;2023-11-22T02:25:44;96710.59;;;4.66;nan
23303;BME280;11820;48.738;9.092;2023-11-22T02:28:10;96714.31;;;4.54;nan
23303;BME280;11820;48.738;9.092;2023-11-22T02:30:36;96723.88;;;4.34;nan
23303;BME280;11820;48.738;9.092;2023-11-22T02:33:01;96725.38;;;4.54;nan
23303;BME280;11820;48.738;9.092;2023-11-22T02:35:26;96733.84;;;4.55;nan
23303;BME280;11820;48.738;9.092;2023-11-22T02:37:54;96727.34;;;4.60;nan
23303;BME280;11820;48.738;9.092;2023-11-22T02:40:21;96725.00;;;4.49;nan
23303;BME280;11820;48.738;9.092;2023-11-22T02:42:47;96720.53;;;4.51;nan
23303;BME280;11820;48.738;9.092;2023-11-22T02:45:14;96731.25;;;4.37;nan
23303;BME280;11820;48.738;9.092;2023-11-22T02:47:40;96738.28;;;4.35;nan
23303;BME280;11820;48.738;9.092;2023-11-22T02:50:06;96743.06;;;4.21;nan
23303;BME280;11820;48.738;9.092;2023-11-22T02:52:31;96739.81;;;4.28;nan
23303;BME280;11820;48.738;9.092;2023-11-22T02:54:57;96736.88;;;4.23;nan
23303;BME280;11820;48.738;9.092;2023-11-22T02:57:22;96744.28;;;3.99;nan
23303;BME280;11820;48.738;9.092;2023-11-22T02:59:48;96751.22;;;4.07;nan
23303;BME280;11820;48.738;9.092;2023-11-22T03:02:13;96752.66;;;4.19;nan
23303;BME280;11820;48.738;9.092;2023-11-22T03:04:41;96749.94;;;3.93;nan
23303;BME280;11820;48.738;9.092;2023-11-22T03:07:07;96757.09;;;4.17;nan
23303;BME280;11820;48.738;9.092;2023-11-22T03:09:32;96759.72;;;4.07;nan
23303;BME280;11820;48.738;9.092;2023-11-22T03:11:58;96765.16;;;3.95;nan
23303;BME280;11820;48.738;9.092;2023-11-22T03:14:23;96767.13;;;4.01;nan
23303;BME280;11820;48.738;9.092;2023-11-22T03:16:48;96778.84;;;4.03;nan
23303;BME280;11820;48.738;9.092;2023-11-22T03:19:14;96781.97;;;3.97;nan
23303;BME280;11820;48.738;9.092;2023-11-22T03:21:40;96774.97;;;3.99;nan
23303;BME280;11820;48.738;9.092;2023-11-22T03:24:07;96780.59;;;4.03;nan
23303;BME280;11820;48.738;9.092;2023-11-22T03:26:33;96788.63;;;4.08;nan
23303;BME280;11820;48.738;9.092;2023-11-22T03:28:59;96786.91;;;4.08;nan
23303;BME280;11820;48.738;9.092;2023-11-22T03:31:24;96780.41;;;3.87;nan
23303;BME280;11820;48.738;9.092;2023-11-22T03:33:50;96793.28;;;3.95;nan
23303;BME280;11820;48.738;9.092;2023-11-22T03:36:15;96795.00;;;3.94;nan
23303;BME280;11820;48.738;9.092;2023-11-22T03:38:40;96798.28;;;3.87;nan
23303;BME280;11820;48.738;9.092;2023-11-22T03:41:05;96800.31;;;3.83;nan
23303;BME280;11820;48.738;9.092;2023-11-22T03:43:31;96805.16;;;3.86;nan
23303;BME280;11820;48.738;9.092;2023-11-22T03:45:56;96819.16;;;3.82;nan
23303;BME280;11820;48.738;9.092;2023-11-22T03:48:21;96818.97;;;3.93;nan
23303;BME280;11820;48.738;9.092;2023-11-22T03:50:49;96824.28;;;3.82;nan
23303;BME280;11820;48.738;9.092;2023-11-22T03:53:14;96830.41;;;3.99;nan
23303;BME280;11820;48.738;9.092;2023-11-22T03:55:39;96826.34;;;4.06;nan
23303;BME280;11820;48.738;9.092;2023-11-22T03:58:05;96833.91;;;4.07;nan
23303;BME280;11820;48.738;9.092;2023-11-22T04:00:30;96832.56;;;4.03;nan
23303;BME280;11820;48.738;9.092;2023-11-22T04:02:57;96839.28;;;4.14;nan
23303;BME280;11820;48.738;9.092;2023-11-22T04:05:25;96836.88;;;4.03;nan
23303;BME280;11820;48.738;9.092;2023-11-22T04:07:51;96839.84;;;3.98;nan
23303;BME280;11820;48.738;9.092;2023-11-22T04:10:16;96835.69;;;3.97;nan
23303;BME280;11820;48.738;9.092;2023-11-22T04:12:42;96832.94;;;4.08;nan
23303;BME280;11820;48.738;9.092;2023-11-22T04:15:07;96833.06;;;4.16;nan
23303;BME280;11820;48.738;9.092;2023-11-22T04:17:35;96842.91;;;4.11;nan
23303;BME280;11820;48.738;9.092;2023-11-22T04:20:04;96840.19;;;4.22;nan
23303;BME280;11820;48.738;9.092;2023-11-22T04:22:33;96837.09;;;4.19;nan
23303;BME280;11820;48.738;9.092;2023-11-22T04:24:59;96850.09;;;3.98;nan
23303;BME280;11820;48.738;9.092;2023-11-22T04:27:24;96857.59;;;4.09;nan
23303;BME280;11820;48.738;9.092;2023-11-22T04:29:49;96855.13;;;4.17;nan
23303;BME280;11820;48.738;9.092;2023-11-22T04:32:15;96851.13;;;4.05;nan
23303;BME280;11820;48.738;9.092;2023-11-22T04:34:40;96861.38;;;4.05;nan
23303;BME280;11820;48.738;9.092;2023-11-22T04:37:05;96858.75;;;4.24;nan
23303;BME280;11820;48.738;9.092;2023-11-22T04:39:31;96863.25;;;4.03;nan
23303;BME280;11820;48.738;9.092;2023-11-22T04:42:00;96869.16;;;4.13;nan
23303;BME280;11820;48.738;9.092;2023-11-22T04:44:25;96876.50;;;4.35;nan
23303;BME280;11820;48.738;9.092;2023-11-22T04:46:51;96884.28;;;4.34;nan
23303;BME280;11820;48.738;9.092;2023-11-22T04:49:16;96885.25;;;4.33;nan
23303;BME280;11820;48.738;9.092;2023-11-22T04:51:42;96888.81;;;4.22;nan
23303;BME280;11820;48.738;9.092;2023-11-22T04:54:08;96881.78;;;4.24;nan
23303;BME280;11820;48.738;9.092;2023-11-22T04:56:33;96886.06;;;4.33;nan
23303;BME280;11820;48.738;9.092;2023-11-22T04:58:59;96889.34;;;4.07;nan
23303;BME280;11820;48.738;9.092;2023-11-22T05:01:24;96900.03;;;4.02;nan
23303;BME280;11820;48.738;9.092;2023-11-22T05:03:50;96898.16;;;3.85;nan
23303;BME280;11820;48.738;9.092;2023-11-22T05:06:15;96896.94;;;3.89;nan
23303;BME280;11820;48.738;9.092;2023-11-22T05:08:42;96905.00;;;3.94;nan
23303;BME280;11820;48.738;9.092;2023-11-22T05:11:07;96902.19;;;3.97;nan
23303;BME280;11820;48.738;9.092;2023-11-22T05:13:33;96908.50;;;3.93;nan
23303;BME280;11820;48.738;9.092;2023-11-22T05:15:58;96911.72;;;3.95;nan
23303;BME280;11820;48.738;9.092;2023-11-22T05:18:23;96918.19;;;4.09;nan
23303;BME280;11820;48.738;9.092;2023-11-22T05:20:48;96930.19;;;3.99;nan
23303;BME280;11820;48.738;9.092;2023-11-22T05:23:14;96925.44;;;4.04;nan
23303;BME280;11820;48.738;9.092;2023-11-22T05:25:39;96936.50;;;3.95;nan
23303;BME280;11820;48.738;9.092;2023-11-22T05:28:04;96946.63;;;3.96;nan
23303;BME280;11820;48.738;9.092;2023-11-22T05:30:30;96935.97;;;4.01;nan
23303;BME280;11820;48.738;9.092;2023-11-22T05:32:55;96945.25;;;4.02;nan
23303;BME280;11820;48.738;9.092;2023-11-22T05:35:21;96947.69;;;4.03;nan
23303;BME280;11820;48.738;9.092;2023-11-22T05:37:47;96940.97;;;4.02;nan
23303;BME280;11820;48.738;9.092;2023-11-22T05:40:12;96936.91;;;4.00;nan
23303;BME280;11820;48.738;9.092;2023-11-22T05:42:41;96939.88;;;3.95;nan
23303;BME280;11820;48.738;9.092;2023-11-22T05:45:06;96935.56;;;3.96;nan
23303;BME280;11820;48.738;9.092;2023-11-22T05:47:33;96939.47;;;3.90;nan
23303;BME280;11820;48.738;9.092;2023-11-22T05:49:58;96941.63;;;3.95;nan
23303;BME280;11820;48.738;9.092;2023-11-22T05:52:23;96942.97;;;3.89;nan
23303;BME280;11820;48.738;9.092;2023-11-22T05:54:49;96951.75;;;3.87;nan
23303;BME280;11820;48.738;9.092;2023-11-22T05:57:14;96953.63;;;3.85;nan
23303;BME280;11820;48.738;9.092;2023-11-22T05:59:40;96957.09;;;3.93;nan
23303;BME280;11820;48.738;9.092;2023-11-22T06:02:06;96966.38;;;4.04;nan
23303;BME280;11820;48.738;9.092;2023-11-22T06:04:31;96968.69;;;3.97;nan
23303;BME280;11820;48.738;9.092;2023-11-22T06:06:56;96959.91;;;4.09;nan
23303;BME280;11820;48.738;9.092;2023-11-22T06:09:22;96970.44;;;4.06;nan
23303;BME280;11820;48.738;9.092;2023-11-22T06:11:48;96977.44;;;3.95;nan
23303;BME280;11820;48.738;9.092;2023-11-22T06:14:14;96986.59;;;3.88;nan
23303;BME280;11820;48.738;9.092;2023-11-22T06:16:39;96987.94;;;3.92;nan
23303;BME280;11820;48.738;9.092;2023-11-22T06:19:04;96996.69;;;3.89;nan
23303;BME280;11820;48.738;9.092;2023-11-22T06:21:30;96998.31;;;4.00;nan
23303;BME280;11820;48.738;9.092;2023-11-22T06:23:55;97005.69;;;3.93;nan
23303;BME280;11820;48.738;9.092;2023-11-22T06:26:23;97006.78;;;3.72;nan
23303;BME280;11820;48.738;9.092;2023-11-22T06:28:48;97015.13;;;3.74;nan
23303;BME280;11820;48.738;9.092;2023-11-22T06:31:15;97021.44;;;3.70;nan
23303;BME280;11820;48.738;9.092;2023-11-22T06:33:40;97022.94;;;3.72;nan
23303;BME280;11820;48.738;9.092;2023-11-22T06:36:05;97020.09;;;3.75;nan
23303;BME280;11820;48.738;9.092;2023-11-22T06:38:31;97024.41;;;3.84;nan
23303;BME280;11820;48.738;9.092;2023-11-22T06:40:56;97023.34;;;3.77;nan
23303;BME280;11820;48.738;9.092;2023-11-22T06:43:21;97026.16;;;3.74;nan
23303;BME280;11820;48.738;9.092;2023-11-22T06:45:47;97029.09;;;3.70;nan
23303;BME280;11820;48.738;9.092;2023-11-22T06:48:13;97028.31;;;3.79;nan
23303;BME280;11820;48.738;9.092;2023-11-22T06:50:38;97023.75;;;3.82;nan
23303;BME280;11820;48.738;9.092;2023-11-22T06:53:04;97020.78;;;3.77;nan
23303;BME280;11820;48.738;9.092;2023-11-22T06:55:31;97033.41;;;3.79;nan
23303;BME280;11820;48.738;9.092;2023-11-22T06:57:58;97035.03;;;3.70;nan
23303;BME280;11820;48.738;9.092;2023-11-22T07:00:23;97035.84;;;3.71;nan
23303;BME280;11820;48.738;9.092;2023-11-22T07:02:48;97043.66;;;3.79;nan
23303;BME280;11820;48.738;9.092;2023-11-22T07:05:14;97047.66;;;3.62;nan
23303;BME280;11820;48.738;9.092;2023-11-22T07:07:40;97048.88;;;3.68;nan
23303;BME280;11820;48.738;9.092;2023-11-22T07:10:06;97051.44;;;3.58;nan
23303;BME280;11820;48.738;9.092;2023-11-22T07:12:32;97049.47;;;3.41;nan
23303;BME280;11820;48.738;9.092;2023-11-22T07:14:59;97053.38;;;3.36;nan
23303;BME280;11820;48.738;9.092;2023-11-22T07:17:24;97060.50;;;3.32;nan
23303;BME280;11820;48.738;9.092;2023-11-22T07:19:53;97060.50;;;3.32;nan
23303;BME280;11820;48.738;9.092;2023-11-22T07:22:18;97065.34;;;3.35;nan
23303;BME280;11820;48.738;9.092;2023-11-22T07:24:49;97071.13;;;3.37;nan
23303;BME280;11820;48.738;9.092;2023-11-22T07:27:19;97075.34;;;3.48;nan
23303;BME280;11820;48.738;9.092;2023-11-22T07:29:45;97074.09;;;3.42;nan
23303;BME280;11820;48.738;9.092;2023-11-22T07:32:11;97088.03;;;3.29;nan
23303;BME280;11820;48.738;9.092;2023-11-22T07:34:38;97096.75;;;3.17;nan
23303;BME280;11820;48.738;9.092;2023-11-22T07:37:07;97096.56;;;3.39;nan
23303;BME280;11820;48.738;9.092;2023-11-22T07:39:34;97106.00;;;3.48;nan
23303;BME280;11820;48.738;9.092;2023-11-22T07:42:01;97102.78;;;3.46;nan
23303;BME280;11820;48.738;9.092;2023-11-22T07:44:26;97105.25;;;3.66;nan
23303;BME280;11820;48.738;9.092;2023-11-22T07:46:52;97119.94;;;3.34;nan
23303;BME280;11820;48.738;9.092;2023-11-22T07:49:19;97117.47;;;3.53;nan
23303;BME280;11820;48.738;9.092;2023-11-22T07:51:46;97121.91;;;3.51;nan
23303;BME280;11820;48.738;9.092;2023-11-22T07:54:11;97129.69;;;3.50;nan
23303;BME280;11820;48.738;9.092;2023-11-22T07:56:43;97123.16;;;3.66;nan
23303;BME280;11820;48.738;9.092;2023-11-22T07:59:12;97122.78;;;3.71;nan
23303;BME280;11820;48.738;9.092;2023-11-22T08:01:38;97119.84;;;3.75;nan
23303;BME280;11820;48.738;9.092;2023-11-22T08:04:03;97112.84;;;3.77;nan
23303;BME280;11820;48.738;9.092;2023-11-22T08:06:31;97112.03;;;3.86;nan
23303;BME280;11820;48.738;9.092;2023-11-22T08:08:56;97117.22;;;3.56;nan
23303;BME280;11820;48.738;9.092;2023-11-22T08:11:22;97119.66;;;3.58;nan
23303;BME280;11820;48.738;9.092;2023-11-22T08:13:48;97126.53;;;3.67;nan
23303;BME280;11820;48.738;9.092;2023-11-22T08:16:13;97123.59;;;3.81;nan
23303;BME280;11820;48.738;9.092;2023-11-22T08:18:39;97121.56;;;3.75;nan
23303;BME280;11820;48.738;9.092;2023-11-22T08:21:08;97127.38;;;3.86;nan
23303;BME280;11820;48.738;9.092;2023-11-22T08:23:33;97126.78;;;3.64;nan
23303;BME280;11820;48.738;9.092;2023-11-22T08:25:59;97126.09;;;3.52;nan
23303;BME280;11820;48.738;9.092;2023-11-22T08:28:25;97125.66;;;3.47;nan
23303;BME280;11820;48.738;9.092;2023-11-22T08:30:51;97134.84;;;3.59;nan
23303;BME280;11820;48.738;9.092;2023-11-22T08:33:16;97126.38;;;3.68;nan
23303;BME280;11820;48.738;9.092;2023-11-22T08:35:41;97129.69;;;3.89;nan
23303;BME280;11820;48.738;9.092;2023-11-22T08:38:08;97125.44;;;3.69;nan
23303;BME280;11820;48.738;9.092;2023-11-22T08:40:34;97132.38;;;3.88;nan
23303;BME280;11820;48.738;9.092;2023-11-22T08:43:02;97136.75;;;3.67;nan
23303;BME280;11820;48.738;9.092;2023-11-22T08:45:29;97129.38;;;3.43;nan
23303;BME280;11820;48.738;9.092;2023-11-22T08:47:54;97138.34;;;3.58;nan
23303;BME280;11820;48.738;9.092;2023-11-22T08:50:20;97133.03;;;3.80;nan
23303;BME280;11820;48.738;9.092;2023-11-22T08:52:46;97139.41;;;3.56;nan
23303;BME280;11820;48.738;9.092;2023-11-22T08:55:12;97142.41;;;3.61;nan
23303;BME280;11820;48.738;9.092;2023-11-22T08:57:40;97144.00;;;3.62;nan
23303;BME280;11820;48.738;9.092;2023-11-22T09:00:06;97148.72;;;3.66;nan
23303;BME280;11820;48.738;9.092;2023-11-22T09:02:35;97144.53;;;3.65;nan
23303;BME280;11820;48.738;9.092;2023-11-22T09:05:01;97137.47;;;3.78;nan
23303;BME280;11820;48.738;9.092;2023-11-22T09:07:30;97144.31;;;3.78;nan
23303;BME280;11820;48.738;9.092;2023-11-22T09:09:56;97136.94;;;3.84;nan
23303;BME280;11820;48.738;9.092;2023-11-22T09:12:23;97135.22;;;3.85;nan
23303;BME280;11820;48.738;9.092;2023-11-22T09:14:49;97127.09;;;3.80;nan
23303;BME280;11820;48.738;9.092;2023-11-22T09:17:14;97131.16;;;3.43;nan
23303;BME280;11820;48.738;9.092;2023-11-22T09:19:39;97124.53;;;3.70;nan
23303;BME280;11820;48.738;9.092;2023-11-22T09:22:05;97124.50;;;4.10;nan
23303;BME280;11820;48.738;9.092;2023-11-22T09:24:33;97133.34;;;4.06;nan
23303;BME280;11820;48.738;9.092;2023-11-22T09:26:59;97132.50;;;3.86;nan
23303;BME280;11820;48.738;9.092;2023-11-22T09:29:26;97125.47;;;3.79;nan
23303;BME280;11820;48.738;9.092;2023-11-22T09:31:51;97133.59;;;3.93;nan
23303;BME280;11820;48.738;9.092;2023-11-22T09:34:17;97128.75;;;3.90;nan
23303;BME280;11820;48.738;9.092;2023-11-22T09:36:42;97138.72;;;3.84;nan
23303;BME280;11820;48.738;9.092;2023-11-22T09:39:09;97141.16;;;3.95;nan
23303;BME280;11820;48.738;9.092;2023-11-22T09:41:35;97152.97;;;3.86;nan
23303;BME280;11820;48.738;9.092;2023-11-22T09:44:01;97145.00;;;3.80;nan
23303;BME280;11820;48.738;9.092;2023-11-22T09:46:26;97146.19;;;3.76;nan
23303;BME280;11820;48.738;9.092;2023-11-22T09:48:53;97151.00;;;3.69;nan
23303;BME280;11820;48.738;9.092;2023-11-22T09:51:29;97162.38;;;3.46;nan
23303;BME280;11820;48.738;9.092;2023-11-22T09:53:58;97157.06;;;3.59;nan
23303;BME280;11820;48.738;9.092;2023-11-22T09:56:26;97158.00;;;3.67;nan
23303;BME280;11820;48.738;9.092;2023-11-22T09:58:54;97167.47;;;3.76;nan
23303;BME280;11820;48.738;9.092;2023-11-22T10:01:21;97181.97;;;3.36;nan
23303;BME280;11820;48.738;9.092;2023-11-22T10:03:47;97181.06;;;3.47;nan
23303;BME280;11820;48.738;9.092;2023-11-22T10:06:13;97184.88;;;3.52;nan
23303;BME280;11820;48.738;9.092;2023-11-22T10:08:40;97191.34;;;3.56;nan
23303;BME280;11820;48.738;9.092;2023-11-22T10:11:06;97193.38;;;3.62;nan
23303;BME280;11820;48.738;9.092;2023-11-22T10:13:32;97205.84;;;3.56;nan
23303;BME280;11820;48.738;9.092;2023-11-22T10:16:08;97200.72;;;3.46;nan
23303;BME280;11820;48.738;9.092;2023-11-22T10:18:34;97207.94;;;3.41;nan
23303;BME280;11820;48.738;9.092;2023-11-22T10:21:00;97203.53;;;3.73;nan
23303;BME280;11820;48.738;9.092;2023-11-22T10:23:28;97204.19;;;3.66;nan
23303;BME280;11820;48.738;9.092;2023-11-22T10:25:54;97193.78;;;3.58;nan
23303;BME280;11820;48.738;9.092;2023-11-22T10:28:21;97195.16;;;3.62;nan
23303;BME280;11820;48.738;9.092;2023-11-22T10:30:49;97191.91;;;3.69;nan
23303;BME280;11820;48.738;9.092;2023-11-22T10:33:17;97197.59;;;3.43;nan
23303;BME280;11820;48.738;9.092;2023-11-22T10:35:47;97197.03;;;3.39;nan
23303;BME280;11820;48.738;9.092;2023-11-22T10:38:14;97198.38;;;3.34;nan
23303;BME280;11820;48.738;9.092;2023-11-22T10:40:40;97185.38;;;3.46;nan
23303;BME280;11820;48.738;9.092;2023-11-22T10:43:07;97181.91;;;3.57;nan
23303;BME280;11820;48.738;9.092;2023-11-22T10:45:33;97186.28;;;3.66;nan
23303;BME280;11820;48.738;9.092;2023-11-22T10:48:00;97184.34;;;3.58;nan
23303;BME280;11820;48.738;9.092;2023-11-22T10:50:26;97188.63;;;3.78;nan
23303;BME280;11820;48.738;9.092;2023-11-22T10:52:52;97197.13;;;3.88;nan
23303;BME280;11820;48.738;9.092;2023-11-22T10:55:20;97185.41;;;3.86;nan
23303;BME280;11820;48.738;9.092;2023-11-22T10:57:51;97192.00;;;3.88;nan
23303;BME280;11820;48.738;9.092;2023-11-22T11:00:19;97196.31;;;3.88;nan
23303;BME280;11820;48.738;9.092;2023-11-22T11:02:51;97195.56;;;4.06;nan
23303;BME280;11820;48.738;9.092;2023-11-22T11:05:20;97196.09;;;4.00;nan
23303;BME280;11820;48.738;9.092;2023-11-22T11:07:55;97209.22;;;3.86;nan
23303;BME280;11820;48.738;9.092;2023-11-22T11:10:22;97216.84;;;3.77;nan
23303;BME280;11820;48.738;9.092;2023-11-22T11:12:48;97225.41;;;3.87;nan
23303;BME280;11820;48.738;9.092;2023-11-22T11:15:15;97218.19;;;4.01;nan
23303;BME280;11820;48.738;9.092;2023-11-22T11:17:43;97225.66;;;3.93;nan
23303;BME280;11820;48.738;9.092;2023-11-22T11:20:12;97228.41;;;4.01;nan
23303;BME280;11820;48.738;9.092;2023-11-22T11:22:39;97223.78;;;3.95;nan
23303;BME280;11820;48.738;9.092;2023-11-22T11:25:05;97221.22;;;3.95;nan
23303;BME280;11820;48.738;9.092;2023-11-22T11:27:34;97225.63;;;3.74;nan
23303;BME280;11820;48.738;9.092;2023-11-22T11:33:08;97235.91;;;3.93;nan
23303;BME280;11820;48.738;9.092;2023-11-22T11:35:47;97224.91;;;4.02;nan
23303;BME280;11820;48.738;9.092;2023-11-22T11:38:14;97214.69;;;4.02;nan
23303;BME280;11820;48.738;9.092;2023-11-22T11:40:41;97223.31;;;4.01;nan
23303;BME280;11820;48.738;9.092;2023-11-22T11:43:07;97224.25;;;4.00;nan
23303;BME280;11820;48.738;9.092;2023-11-22T11:45:40;97224.41;;;3.78;nan
23303;BME280;11820;48.738;9.092;2023-11-22T11:48:12;97230.09;;;3.91;nan
23303;BME280;11820;48.738;9.092;2023-11-22T11:50:37;97238.25;;;3.76;nan
23303;BME280;11820;48.738;9.092;2023-11-22T11:53:02;97239.53;;;3.91;nan
23303;BME280;11820;48.738;9.092;2023-11-22T11:55:30;97241.84;;;3.94;nan
23303;BME280;11820;48.738;9.092;2023-11-22T11:57:55;97250.19;;;3.66;nan
23303;BME280;11820;48.738;9.092;2023-11-22T12:00:22;97245.13;;;3.75;nan
23303;BME280;11820;48.738;9.092;2023-11-22T12:02:50;97250.06;;;3.67;nan
23303;BME280;11820;48.738;9.092;2023-11-22T12:05:15;97252.81;;;3.75;nan
23303;BME280;11820;48.738;9.092;2023-11-22T12:07:40;97258.66;;;3.66;nan
23303;BME280;11820;48.738;9.092;2023-11-22T12:10:06;97256.34;;;3.63;nan
23303;BME280;11820;48.738;9.092;2023-11-22T12:12:33;97266.16;;;3.58;nan
23303;BME280;11820;48.738;9.092;2023-11-22T12:14:59;97280.19;;;3.64;nan
23303;BME280;11820;48.738;9.092;2023-11-22T12:17:26;97274.69;;;3.48;nan
23303;BME280;11820;48.738;9.092;2023-11-22T12:19:52;97269.47;;;3.49;nan
23303;BME280;11820;48.738;9.092;2023-11-22T12:22:18;97277.00;;;3.71;nan
23303;BME280;11820;48.738;9.092;2023-11-22T12:24:44;97286.25;;;3.63;nan
23303;BME280;11820;48.738;9.092;2023-11-22T12:27:09;97293.09;;;3.62;nan
23303;BME280;11820;48.738;9.092;2023-11-22T12:29:36;97290.69;;;3.61;nan
23303;BME280;11820;48.738;9.092;2023-11-22T12:32:02;97290.63;;;3.51;nan
23303;BME280;11820;48.738;9.092;2023-11-22T12:34:27;97297.13;;;3.44;nan
23303;BME280;11820;48.738;9.092;2023-11-22T12:36:55;97300.16;;;3.49;nan
23303;BME280;11820;48.738;9.092;2023-11-22T12:39:20;97302.72;;;3.49;nan
23303;BME280;11820;48.738;9.092;2023-11-22T12:41:52;97293.34;;;3.59;nan
23303;BME280;11820;48.738;9.092;2023-11-22T12:44:19;97301.81;;;3.39;nan
23303;BME280;11820;48.738;9.092;2023-11-22T12:46:46;97297.38;;;3.82;nan
23303;BME280;11820;48.738;9.092;2023-11-22T12:49:14;97280.31;;;3.92;nan
23303;BME280;11820;48.738;9.092;2023-11-22T12:51:46;97278.81;;;3.80;nan
23303;BME280;11820;48.738;9.092;2023-11-22T12:54:11;97279.38;;;3.84;nan
23303;BME280;11820;48.738;9.092;2023-11-22T12:56:36;97284.84;;;3.79;nan
23303;BME280;11820;48.738;9.092;2023-11-22T12:59:02;97276.84;;;3.93;nan
23303;BME280;11820;48.738;9.092;2023-11-22T13:01:27;97284.69;;;3.51;nan
23303;BME280;11820;48.738;9.092;2023-11-22T13:03:53;97273.25;;;3.55;nan
23303;BME280;11820;48.738;9.092;2023-11-22T13:06:18;97273.53;;;3.31;nan
23303;BME280;11820;48.738;9.092;2023-11-22T13:08:44;97266.88;;;3.40;nan
23303;BME280;11820;48.738;9.092;2023-11-22T13:11:09;97265.31;;;3.48;nan
23303;BME280;11820;48.738;9.092;2023-11-22T13:13:35;97263.88;;;3.35;nan
23303;BME280;11820;48.738;9.092;2023-11-22T13:16:00;97269.59;;;3.27;nan
23303;BME280;11820;48.738;9.092;2023-11-22T13:18:26;97271.66;;;3.33;nan
23303;BME280;11820;48.738;9.092;2023-11-22T13:20:51;97276.13;;;3.61;nan
23303;BME280;11820;48.738;9.092;2023-11-22T13:23:16;97263.69;;;3.47;nan
23303;BME280;11820;48.738;9.092;2023-11-22T13:25:43;97272.84;;;3.50;nan
23303;BME280;11820;48.738;9.092;2023-11-22T13:28:09;97278.63;;;3.31;nan
23303;BME280;11820;48.738;9.092;2023-11-22T13:30:34;97286.72;;;3.36;nan